Time;durP1;ratioP1;P1;durP2;ratioP2;P2;SDS_P1;SDS_P2;PMS_P1;PMS_P2;Temp;Humidity;BMP_temperature;BMP_pressure;BME280_temperature;BME280_humidity;BME280_pressure;Samples;Min_cycle;Max_cycle;Signal;HPM_P1;HPM_P2
2022/04/17 00:01:32;;;;;;;2.75;1.48;;;20.60;50.90;;;;;;5033320;28;20124;-59
2022/04/17 00:03:58;;;;;;;2.53;1.00;;;20.60;50.90;;;;;;5033513;28;20578;-59
2022/04/17 00:06:23;;;;;;;2.38;1.23;;;20.60;50.90;;;;;;5033636;28;20400;-59
2022/04/17 00:08:49;;;;;;;2.00;1.00;;;20.60;51.00;;;;;;5032330;28;20096;-59
2022/04/17 00:11:15;;;;;;;2.85;1.23;;;20.60;51.00;;;;;;5033007;28;20045;-59
2022/04/17 00:13:41;;;;;;;2.63;1.15;;;20.60;51.00;;;;;;5033224;28;20046;-60
2022/04/17 00:16:07;;;;;;;2.88;1.20;;;20.50;50.90;;;;;;5032598;28;20497;-59
2022/04/17 00:18:32;;;;;;;3.28;1.50;;;20.50;50.90;;;;;;5033596;28;20084;-59
2022/04/17 00:20:58;;;;;;;3.97;1.33;;;20.50;50.90;;;;;;5033070;28;20356;-59
2022/04/17 00:23:24;;;;;;;3.20;1.30;;;20.50;51.00;;;;;;5032741;28;20519;-59
2022/04/17 00:25:49;;;;;;;3.63;1.10;;;20.50;51.00;;;;;;5033241;28;20049;-59
2022/04/17 00:28:15;;;;;;;2.17;1.20;;;20.50;51.00;;;;;;5033310;28;20108;-60
2022/04/17 00:30:40;;;;;;;2.65;1.10;;;20.50;51.00;;;;;;5031976;28;20567;-59
2022/04/17 00:33:06;;;;;;;3.63;1.40;;;20.50;51.00;;;;;;5033339;28;20045;-59
2022/04/17 00:35:32;;;;;;;3.05;1.48;;;20.50;51.00;;;;;;5033510;28;20045;-59
2022/04/17 00:37:57;;;;;;;3.25;1.20;;;20.50;51.00;;;;;;5031616;28;20045;-59
2022/04/17 00:40:23;;;;;;;2.95;1.48;;;20.40;51.00;;;;;;5032775;28;20060;-59
2022/04/17 00:42:48;;;;;;;2.88;1.45;;;20.50;51.10;;;;;;5032704;28;20124;-59
2022/04/17 00:45:14;;;;;;;4.28;1.35;;;20.40;51.00;;;;;;5032125;28;20049;-59
2022/04/17 00:47:40;;;;;;;2.97;1.10;;;20.40;51.00;;;;;;5032916;28;20060;-60
2022/04/17 00:50:07;;;;;;;2.53;1.35;;;20.40;51.00;;;;;;5033114;28;20477;-59
2022/04/17 00:52:32;;;;;;;2.95;1.50;;;20.40;51.00;;;;;;5032272;28;20107;-60
2022/04/17 00:55:00;;;;;;;3.08;1.15;;;20.40;51.10;;;;;;5031440;28;20065;-60
2022/04/17 00:57:25;;;;;;;3.90;1.40;;;20.40;51.00;;;;;;5032594;28;20065;-59
2022/04/17 00:59:51;;;;;;;2.83;1.40;;;20.40;51.10;;;;;;5031939;28;20120;-59
2022/04/17 01:02:17;;;;;;;3.70;1.50;;;20.40;51.10;;;;;;5032799;28;20463;-59
2022/04/17 01:04:43;;;;;;;3.00;1.50;;;20.40;51.10;;;;;;5032680;28;20087;-59
2022/04/17 01:07:09;;;;;;;3.00;1.40;;;20.40;51.10;;;;;;5031881;28;20049;-59
2022/04/17 01:09:35;;;;;;;3.00;1.70;;;20.40;51.10;;;;;;5032864;28;20033;-59
2022/04/17 01:12:00;;;;;;;2.95;1.40;;;20.30;51.00;;;;;;5031787;28;20041;-59
2022/04/17 01:14:29;;;;;;;2.75;1.55;;;20.30;51.00;;;;;;5031584;28;20048;-59
2022/04/17 01:16:55;;;;;;;3.03;1.63;;;20.30;51.10;;;;;;5032587;28;20103;-59
2022/04/17 01:19:22;;;;;;;3.45;1.60;;;20.30;51.10;;;;;;5031454;28;20045;-59
2022/04/17 01:21:49;;;;;;;3.55;1.70;;;20.30;51.10;;;;;;5032222;28;20037;-59
2022/04/17 01:27:01;;;;;;;4.57;1.70;;;20.30;51.10;;;;;;5031351;28;20420;-59
2022/04/17 01:29:34;;;;;;;2.88;1.20;;;20.30;51.10;;;;;;5032358;28;20046;-59
2022/04/17 01:32:00;;;;;;;2.33;1.27;;;20.30;51.10;;;;;;5031911;28;20054;-59
2022/04/17 01:34:26;;;;;;;2.90;1.40;;;20.30;51.10;;;;;;5031754;28;20200;-59
2022/04/17 01:36:52;;;;;;;2.58;1.33;;;20.30;51.20;;;;;;5031907;28;20134;-59
2022/04/17 01:39:18;;;;;;;3.60;1.50;;;20.30;51.20;;;;;;5032132;28;20473;-59
2022/04/17 01:41:44;;;;;;;3.30;1.98;;;20.30;51.20;;;;;;5031431;28;20048;-59
2022/04/17 01:44:09;;;;;;;3.03;1.40;;;20.20;51.20;;;;;;5032515;28;20045;-59
2022/04/17 01:46:35;;;;;;;3.28;1.67;;;20.20;51.20;;;;;;5032564;28;20045;-59
2022/04/17 01:49:01;;;;;;;2.53;1.58;;;20.20;51.30;;;;;;5031202;28;20034;-59
2022/04/17 01:51:27;;;;;;;2.33;1.40;;;20.20;51.30;;;;;;5032184;28;20183;-59
2022/04/17 01:53:52;;;;;;;3.10;1.65;;;20.20;51.30;;;;;;5032070;28;20052;-59
2022/04/17 01:56:18;;;;;;;3.63;1.67;;;20.20;51.30;;;;;;5031129;28;20042;-59
2022/04/17 01:58:44;;;;;;;4.60;1.60;;;20.20;51.40;;;;;;5032010;28;20064;-59
2022/04/17 02:01:09;;;;;;;2.97;1.80;;;20.20;51.40;;;;;;5031385;28;20070;-59
2022/04/17 02:03:35;;;;;;;3.03;1.60;;;20.20;51.40;;;;;;5032156;28;20481;-59
2022/04/17 02:06:00;;;;;;;3.30;1.70;;;20.20;51.40;;;;;;5031637;28;20139;-59
2022/04/17 02:08:29;;;;;;;4.47;1.85;;;20.20;51.40;;;;;;5031193;28;20037;-59
2022/04/17 02:10:55;;;;;;;3.20;1.55;;;20.20;51.40;;;;;;5031953;28;20042;-59
2022/04/17 02:13:22;;;;;;;3.65;1.70;;;20.20;51.40;;;;;;5031942;28;20124;-59
2022/04/17 02:15:50;;;;;;;3.00;1.70;;;20.20;51.50;;;;;;5030991;28;20049;-59
2022/04/17 02:18:16;;;;;;;2.45;1.35;;;20.20;51.50;;;;;;5032345;28;20045;-59
2022/04/17 02:20:42;;;;;;;2.35;1.48;;;20.20;51.50;;;;;;5031413;28;20052;-59
2022/04/17 02:23:07;;;;;;;3.75;2.05;;;20.20;51.50;;;;;;5031177;28;20045;-59
2022/04/17 02:25:33;;;;;;;3.22;1.55;;;20.20;51.50;;;;;;5032009;28;20096;-59
2022/04/17 02:27:58;;;;;;;3.70;1.65;;;20.20;51.60;;;;;;5031846;28;20053;-59
2022/04/17 02:30:24;;;;;;;2.47;1.63;;;20.20;51.60;;;;;;5031251;28;20099;-59
2022/04/17 02:32:49;;;;;;;2.40;1.58;;;20.20;51.70;;;;;;5034166;28;20132;-59
2022/04/17 02:35:17;;;;;;;4.10;1.92;;;20.20;51.70;;;;;;5035225;28;20080;-59
2022/04/17 02:37:42;;;;;;;2.95;1.67;;;20.20;51.60;;;;;;5034482;28;20175;-59
2022/04/17 02:40:08;;;;;;;3.20;1.60;;;20.30;51.70;;;;;;5035399;28;20394;-59
2022/04/17 02:42:34;;;;;;;2.42;1.45;;;20.30;51.70;;;;;;5035584;28;20044;-59
2022/04/17 02:44:59;;;;;;;3.72;1.98;;;20.30;51.80;;;;;;5034111;28;20045;-59
2022/04/17 02:47:43;;;;;;;3.33;1.85;;;20.30;51.70;;;;;;5034469;28;20118;-59
2022/04/17 02:50:12;;;;;;;2.78;1.55;;;20.30;51.70;;;;;;5035307;28;20055;-59
2022/04/17 02:52:38;;;;;;;2.97;1.63;;;20.30;51.70;;;;;;5034185;28;20489;-59
2022/04/17 02:55:04;;;;;;;3.55;1.60;;;20.30;51.70;;;;;;5035216;28;20044;-59
2022/04/17 02:57:33;;;;;;;4.07;2.00;;;20.30;51.70;;;;;;5034068;28;20037;-59
2022/04/17 02:59:59;;;;;;;3.17;1.65;;;20.30;51.70;;;;;;5034799;28;20058;-59
2022/04/17 03:07:53;;;;;;;3.55;1.90;;;20.30;51.70;;;;;;5034761;28;20049;-60
2022/04/17 03:10:19;;;;;;;3.40;1.85;;;20.30;51.70;;;;;;5034940;28;20049;-59
2022/04/17 03:12:45;;;;;;;4.20;2.25;;;20.30;51.70;;;;;;5033578;28;20064;-59
2022/04/17 03:15:10;;;;;;;2.90;1.60;;;20.30;51.70;;;;;;5034478;28;20044;-60
2022/04/17 03:17:37;;;;;;;3.53;1.77;;;20.30;51.70;;;;;;5034608;28;20048;-59
2022/04/17 03:20:03;;;;;;;3.75;1.98;;;20.30;51.70;;;;;;5033711;28;20128;-59
2022/04/17 03:22:29;;;;;;;3.65;1.80;;;20.40;51.80;;;;;;5034715;28;20130;-59
2022/04/17 03:24:54;;;;;;;2.83;1.88;;;20.30;51.80;;;;;;5034382;28;20129;-59
2022/04/17 03:27:20;;;;;;;3.15;1.83;;;20.40;51.70;;;;;;5033618;28;20044;-59
2022/04/17 03:29:45;;;;;;;3.25;1.65;;;20.40;51.80;;;;;;5034158;28;20114;-59
2022/04/17 03:32:11;;;;;;;4.90;1.92;;;20.40;51.80;;;;;;5034674;28;20051;-59
2022/04/17 03:34:36;;;;;;;3.55;1.83;;;20.40;51.70;;;;;;5033520;28;20049;-59
2022/04/17 03:37:06;;;;;;;3.42;1.85;;;20.40;51.80;;;;;;5034254;28;20600;-59
2022/04/17 03:39:32;;;;;;;2.97;1.85;;;20.40;51.70;;;;;;5034149;28;20073;-59
2022/04/17 03:41:57;;;;;;;3.22;1.75;;;20.40;51.70;;;;;;5032466;28;20591;-59
2022/04/17 03:44:23;;;;;;;2.55;1.35;;;20.40;51.80;;;;;;5034035;28;20084;-59
2022/04/17 03:46:49;;;;;;;3.03;1.73;;;20.40;51.80;;;;;;5033377;28;20053;-59
2022/04/17 03:49:15;;;;;;;4.07;2.05;;;20.40;51.80;;;;;;5034152;28;20410;-59
2022/04/17 03:51:40;;;;;;;3.47;1.60;;;20.40;51.80;;;;;;5033683;28;20037;-59
2022/04/17 03:54:06;;;;;;;3.38;2.08;;;20.40;51.80;;;;;;5033055;28;20041;-60
2022/04/17 03:56:31;;;;;;;3.20;1.73;;;20.40;51.80;;;;;;5034079;28;20125;-59
2022/04/17 03:58:57;;;;;;;3.17;1.85;;;20.40;51.80;;;;;;5033643;28;20045;-59
2022/04/17 04:01:22;;;;;;;3.47;2.05;;;20.40;51.80;;;;;;5033106;28;20045;-58
2022/04/17 04:03:49;;;;;;;3.92;2.20;;;20.40;52.40;;;;;;5033027;28;20524;-59
2022/04/17 04:06:15;;;;;;;3.30;1.92;;;20.40;51.80;;;;;;5032034;28;20046;-59
2022/04/17 04:08:41;;;;;;;2.70;1.70;;;20.40;51.80;;;;;;5032197;28;20408;-59
2022/04/17 04:11:08;;;;;;;3.00;1.73;;;20.40;51.80;;;;;;5033531;28;20392;-59
2022/04/17 04:13:33;;;;;;;4.20;2.05;;;20.40;51.80;;;;;;5033717;28;20046;-59
2022/04/17 04:15:59;;;;;;;3.08;1.88;;;20.40;51.80;;;;;;5032596;28;20052;-59
2022/04/17 04:18:24;;;;;;;3.20;1.90;;;20.40;51.80;;;;;;5033363;28;20042;-59
2022/04/17 04:20:50;;;;;;;3.38;1.90;;;20.40;51.80;;;;;;5032799;28;20072;-60
2022/04/17 04:23:16;;;;;;;4.03;2.00;;;20.40;51.70;;;;;;5032651;28;20076;-59
2022/04/17 04:25:42;;;;;;;4.53;2.13;;;20.40;51.70;;;;;;5033109;28;20045;-59
2022/04/17 04:30:52;;;;;;;3.47;2.10;;;20.40;51.70;;;;;;5032209;28;20054;-59
2022/04/17 04:33:17;;;;;;;3.80;1.95;;;20.40;51.70;;;;;;5033247;28;20053;-59
2022/04/17 04:35:43;;;;;;;3.80;1.73;;;20.40;51.70;;;;;;5032628;28;20048;-59
2022/04/17 04:38:08;;;;;;;3.80;2.10;;;20.40;51.70;;;;;;5032300;28;20045;-59
2022/04/17 04:40:34;;;;;;;3.30;2.20;;;20.40;51.70;;;;;;5032727;28;20080;-59
2022/04/17 04:42:59;;;;;;;4.68;2.35;;;20.40;51.70;;;;;;5031809;28;20073;-58
2022/04/17 04:48:10;;;;;;;3.72;1.98;;;20.50;51.70;;;;;;5032892;28;20405;-59
2022/04/17 04:50:35;;;;;;;3.28;1.88;;;20.40;51.70;;;;;;5032124;28;20045;-59
2022/04/17 04:53:01;;;;;;;3.40;1.85;;;20.40;51.60;;;;;;5032158;28;20124;-59
2022/04/17 04:55:27;;;;;;;2.92;1.77;;;20.40;51.60;;;;;;5032574;28;20053;-59
2022/04/17 04:57:53;;;;;;;3.30;1.90;;;20.50;51.70;;;;;;5032093;28;20380;-59
2022/04/17 05:00:18;;;;;;;4.65;1.90;;;20.50;51.60;;;;;;5032863;28;20045;-59
2022/04/17 05:02:44;;;;;;;3.55;2.30;;;20.40;51.60;;;;;;5032604;28;20048;-59
2022/04/17 05:05:10;;;;;;;3.22;1.80;;;20.50;51.60;;;;;;5031870;28;20041;-59
2022/04/17 05:07:35;;;;;;;4.10;2.40;;;20.50;51.60;;;;;;5032643;28;20092;-59
2022/04/17 05:10:01;;;;;;;3.38;2.00;;;20.50;51.60;;;;;;5032463;28;20045;-59
2022/04/17 05:12:29;;;;;;;4.22;2.25;;;20.50;51.60;;;;;;5032093;28;20481;-59
2022/04/17 05:14:55;;;;;;;;;;;20.50;51.50;;;;;;5032870;28;20559;-59
2022/04/17 05:17:20;;;;;;;3.15;1.95;;;20.50;51.40;;;;;;5032628;28;19971;-59
2022/04/17 05:19:46;;;;;;;3.38;2.10;;;20.50;51.40;;;;;;5031255;28;20412;-59
2022/04/17 05:22:16;;;;;;;4.07;2.30;;;20.50;51.40;;;;;;5032647;28;20119;-60
2022/04/17 05:24:42;;;;;;;3.28;1.95;;;20.60;51.40;;;;;;5032241;28;20045;-60
2022/04/17 05:27:08;;;;;;;3.55;2.22;;;20.60;51.40;;;;;;5031415;28;20409;-59
2022/04/17 05:29:33;;;;;;;3.72;2.10;;;20.60;51.40;;;;;;5032567;28;20033;-60
2022/04/17 05:32:00;;;;;;;4.22;2.10;;;20.60;51.40;;;;;;5031157;28;20072;-59
2022/04/17 05:34:26;;;;;;;4.90;2.40;;;20.60;51.50;;;;;;5031847;28;20044;-60
2022/04/17 05:36:51;;;;;;;3.03;1.90;;;20.60;51.50;;;;;;5032220;28;20037;-59
2022/04/17 05:39:17;;;;;;;3.53;2.10;;;20.60;51.60;;;;;;5031642;28;20489;-59
2022/04/17 05:41:42;;;;;;;4.03;2.22;;;20.60;51.60;;;;;;5031901;28;20120;-59
2022/04/17 05:44:08;;;;;;;3.33;1.90;;;20.60;51.60;;;;;;5031197;28;20072;-59
2022/04/17 05:46:36;;;;;;;3.65;2.33;;;20.60;51.60;;;;;;5031472;28;20496;-59
2022/04/17 05:49:02;;;;;;;3.47;1.98;;;20.60;51.70;;;;;;5032050;28;20049;-59
2022/04/17 05:51:28;;;;;;;3.08;1.88;;;20.60;51.70;;;;;;5032278;28;20084;-59
2022/04/17 05:53:53;;;;;;;3.35;1.90;;;20.60;51.80;;;;;;5031149;28;20084;-59
2022/04/17 05:56:19;;;;;;;4.22;2.28;;;20.60;51.80;;;;;;5031720;28;20038;-59
2022/04/17 05:58:45;;;;;;;5.90;1.98;;;20.60;51.90;;;;;;5031870;28;20055;-62
2022/04/17 06:01:11;;;;;;;5.68;2.60;;;20.60;51.90;;;;;;5031435;28;20525;-59
2022/04/17 06:03:36;;;;;;;3.55;1.90;;;20.60;51.90;;;;;;5032152;28;20049;-60
2022/04/17 06:06:02;;;;;;;7.28;2.20;;;20.70;51.90;;;;;;5034575;28;20051;-59
2022/04/17 06:08:28;;;;;;;6.47;2.17;;;20.60;51.90;;;;;;5035409;28;20041;-59
2022/04/17 06:10:54;;;;;;;3.28;1.90;;;20.70;51.90;;;;;;5035735;28;20144;-59
2022/04/17 06:13:19;;;;;;;4.57;2.00;;;20.70;51.90;;;;;;5035918;28;20045;-59
2022/04/17 06:15:45;;;;;;;4.45;2.45;;;20.70;51.90;;;;;;5034822;28;20045;-59
2022/04/17 06:18:10;;;;;;;4.15;2.15;;;20.70;52.00;;;;;;5035706;28;20042;-59
2022/04/17 06:20:36;;;;;;;4.88;2.60;;;20.70;52.00;;;;;;5035341;28;20140;-59
2022/04/17 06:23:01;;;;;;;4.50;2.50;;;20.70;52.10;;;;;;5034758;28;20041;-59
2022/04/17 06:25:27;;;;;;;6.07;2.40;;;20.80;52.20;;;;;;5035516;28;20127;-60
2022/04/17 06:27:52;;;;;;;7.47;2.80;;;20.80;52.20;;;;;;5035483;28;20392;-59
2022/04/17 06:30:19;;;;;;;3.72;2.40;;;20.80;52.30;;;;;;5034811;28;20135;-59
2022/04/17 06:32:45;;;;;;;4.25;2.00;;;20.80;52.40;;;;;;5035174;28;20160;-59
2022/04/17 06:35:11;;;;;;;4.45;2.25;;;20.80;52.50;;;;;;5035401;28;20103;-59
2022/04/17 06:37:53;;;;;;;5.97;2.45;;;20.90;52.50;;;;;;5034938;28;20052;-60
2022/04/17 06:40:29;;;;;;;9.13;2.50;;;20.90;52.60;;;;;;5027255;28;20037;-59
2022/04/17 06:42:57;;;;;;;5.70;2.35;;;20.90;52.50;;;;;;5016972;28;20113;-59
2022/04/17 06:45:22;;;;;;;7.60;2.70;;;20.90;52.60;;;;;;5017855;28;20050;-58
2022/04/17 06:47:49;;;;;;;6.07;2.58;;;20.90;52.60;;;;;;5015144;28;20053;-58
2022/04/17 06:50:15;;;;;;;6.82;2.28;;;21.00;52.80;;;;;;5014711;28;20038;-59
2022/04/17 06:52:41;;;;;;;8.40;2.50;;;21.00;52.90;;;;;;5015272;28;20486;-59
2022/04/17 06:55:11;;;;;;;5.15;2.42;;;21.00;52.90;;;;;;5015382;28;20048;-58
2022/04/17 06:57:37;;;;;;;4.95;2.20;;;21.00;52.90;;;;;;5014485;28;20408;-58
2022/04/17 07:00:09;;;;;;;9.30;2.80;;;21.00;52.90;;;;;;5013272;28;20500;-58
2022/04/17 07:02:38;;;;;;;5.20;2.58;;;21.00;52.90;;;;;;5015284;28;20038;-58
2022/04/17 07:05:04;;;;;;;5.05;2.53;;;21.10;53.00;;;;;;5014180;28;20398;-59
2022/04/17 07:07:29;;;;;;;4.97;2.67;;;21.10;53.00;;;;;;5015135;28;20049;-59
2022/04/17 07:09:55;;;;;;;4.88;2.55;;;21.10;53.00;;;;;;5014338;28;20397;-58
2022/04/17 07:12:21;;;;;;;8.35;2.42;;;21.10;53.00;;;;;;5022951;28;20505;-59
2022/04/17 07:14:50;;;;;;;4.80;2.47;;;21.10;53.00;;;;;;5014395;28;20137;-59
2022/04/17 07:17:15;;;;;;;3.95;2.17;;;21.10;53.00;;;;;;5014024;28;20046;-59
2022/04/17 07:19:41;;;;;;;6.90;2.58;;;21.10;52.90;;;;;;5013768;28;20046;-59
2022/04/17 07:22:06;;;;;;;3.47;2.33;;;21.10;52.90;;;;;;5014606;28;20045;-59
2022/04/17 07:24:32;;;;;;;5.93;2.85;;;21.20;52.90;;;;;;5014654;28;20056;-59
2022/04/17 07:26:58;;;;;;;5.00;2.15;;;21.20;52.90;;;;;;5013523;28;20049;-59
2022/04/17 07:29:23;;;;;;;5.35;2.45;;;21.20;52.90;;;;;;5014267;28;20050;-59
2022/04/17 07:31:50;;;;;;;3.85;2.33;;;21.20;52.90;;;;;;5015517;28;20064;-59
2022/04/17 07:34:20;;;;;;;5.05;2.50;;;21.20;52.90;;;;;;5023141;28;20042;-59
2022/04/17 07:36:47;;;;;;;4.20;2.50;;;21.20;52.90;;;;;;5023604;28;20096;-59
2022/04/17 07:39:16;;;;;;;5.85;2.88;;;21.30;52.90;;;;;;5026155;28;20124;-59
2022/04/17 07:41:42;;;;;;;4.03;2.20;;;21.30;52.90;;;;;;5023380;28;20105;-59
2022/04/17 07:44:11;;;;;;;7.15;2.70;;;21.30;52.90;;;;;;5023350;28;20033;-59
2022/04/17 07:46:38;;;;;;;6.05;3.00;;;21.30;53.00;;;;;;5018809;28;20064;-60
2022/04/17 07:49:04;;;;;;;7.13;3.38;;;21.30;53.00;;;;;;5015610;28;20112;-59
2022/04/17 07:51:29;;;;;;;7.40;3.30;;;21.30;53.10;;;;;;5014005;28;20497;-59
2022/04/17 07:53:55;;;;;;;7.05;3.42;;;21.40;53.20;;;;;;5018260;28;20038;-59
2022/04/17 07:56:21;;;;;;;5.10;2.95;;;21.40;53.30;;;;;;5016699;28;20195;-59
2022/04/17 07:58:46;;;;;;;7.15;3.47;;;21.40;53.40;;;;;;5018955;28;20107;-59
2022/04/17 08:01:14;;;;;;;9.05;3.58;;;21.50;53.50;;;;;;5012964;28;20050;-59
2022/04/17 08:06:09;;;;;;;8.90;3.78;;;21.50;53.70;;;;;;5027244;28;20049;-59
2022/04/17 08:08:35;;;;;;;7.60;3.97;;;21.50;53.70;;;;;;5032917;28;20041;-59
2022/04/17 08:11:01;;;;;;;6.90;3.75;;;21.50;53.90;;;;;;5033367;28;20147;-59
2022/04/17 08:13:26;;;;;;;7.07;3.55;;;21.50;53.90;;;;;;5015786;28;20092;-59
2022/04/17 08:15:52;;;;;;;8.25;3.78;;;21.50;54.00;;;;;;5012807;28;20123;-59
2022/04/17 08:18:18;;;;;;;8.63;3.78;;;21.60;54.00;;;;;;5013605;28;20074;-58
2022/04/17 08:20:43;;;;;;;8.25;3.20;;;21.60;54.10;;;;;;5013370;28;20125;-59
2022/04/17 08:23:09;;;;;;;8.20;3.78;;;21.60;54.20;;;;;;5012824;28;20048;-59
2022/04/17 08:25:35;;;;;;;8.20;4.15;;;21.60;54.20;;;;;;5013302;28;20050;-59
2022/04/17 08:28:02;;;;;;;6.70;3.85;;;21.60;54.10;;;;;;5012029;28;20042;-59
2022/04/17 08:30:30;;;;;;;8.75;3.47;;;21.60;54.10;;;;;;5013189;28;20058;-59
2022/04/17 08:32:56;;;;;;;8.05;3.50;;;21.60;54.10;;;;;;5013210;28;20053;-59
2022/04/17 08:35:22;;;;;;;7.75;3.63;;;21.60;54.10;;;;;;5011658;28;20117;-59
2022/04/17 08:37:47;;;;;;;8.20;3.28;;;21.70;54.10;;;;;;5012980;28;20113;-59
2022/04/17 08:40:13;;;;;;;9.20;3.40;;;21.70;54.00;;;;;;5013367;28;20128;-59
2022/04/17 08:42:39;;;;;;;8.35;3.53;;;21.70;53.80;;;;;;5012518;28;20509;-59
2022/04/17 08:45:05;;;;;;;8.93;3.85;;;21.70;53.70;;;;;;5022037;28;20045;-58
2022/04/17 08:47:31;;;;;;;6.63;3.38;;;21.70;53.50;;;;;;5021571;28;20417;-58
2022/04/17 08:49:57;;;;;;;7.47;2.92;;;21.70;53.60;;;;;;5013733;28;20584;-58
2022/04/17 08:52:22;;;;;;;7.82;3.00;;;21.70;53.60;;;;;;5012786;28;20052;-58
2022/04/17 08:54:48;;;;;;;7.03;3.00;;;21.70;53.60;;;;;;5031329;28;20081;-59
2022/04/17 08:57:14;;;;;;;10.75;3.40;;;21.70;53.60;;;;;;5032158;28;20041;-58
2022/04/17 08:59:39;;;;;;;9.68;3.10;;;21.70;53.60;;;;;;5031589;28;20049;-58
2022/04/17 09:02:10;;;;;;;8.25;3.30;;;21.70;53.60;;;;;;5016221;28;20052;-58
2022/04/17 09:04:37;;;;;;;10.02;3.65;;;21.70;53.60;;;;;;5030124;28;20052;-58
2022/04/17 09:07:07;;;;;;;10.70;3.28;;;21.80;53.60;;;;;;5032234;28;20033;-59
2022/04/17 09:09:36;;;;;;;8.77;3.20;;;21.70;53.40;;;;;;5031405;28;20037;-61
2022/04/17 09:12:02;;;;;;;6.22;3.00;;;21.80;53.30;;;;;;5029231;28;20437;-58
2022/04/17 09:14:27;;;;;;;8.45;3.60;;;21.80;53.30;;;;;;5032118;28;20072;-58
2022/04/17 09:16:53;;;;;;;8.57;3.08;;;21.80;53.40;;;;;;5032015;28;20085;-57
2022/04/17 09:19:19;;;;;;;8.13;3.30;;;21.80;53.50;;;;;;5031765;28;20068;-58
2022/04/17 09:21:45;;;;;;;8.90;3.20;;;21.80;53.70;;;;;;5032297;28;20120;-58
2022/04/17 09:24:21;;;;;;;4.35;2.50;;;21.80;53.60;;;;;;5032671;28;20096;-58
2022/04/17 09:26:56;;;;;;;8.13;3.22;;;21.80;53.70;;;;;;5032152;28;20111;-58
2022/04/17 09:29:29;;;;;;;6.50;2.80;;;21.80;53.90;;;;;;5032552;28;20366;-58
2022/04/17 09:31:56;;;;;;;8.40;3.38;;;21.80;53.90;;;;;;5030839;28;20053;-58
2022/04/17 09:34:22;;;;;;;8.25;2.92;;;21.80;53.90;;;;;;5032637;28;20057;-58
2022/04/17 09:36:55;;;;;;;8.00;3.42;;;21.80;53.50;;;;;;5032249;28;20034;-57
2022/04/17 09:39:20;;;;;;;17.10;3.50;;;21.80;52.50;;;;;;5031738;28;20049;-57
2022/04/17 09:41:56;;;;;;;10.93;3.20;;;21.80;52.40;;;;;;5035784;28;20091;-58
2022/04/17 09:44:46;;;;;;;15.23;3.63;;;21.80;52.20;;;;;;5035697;28;20056;-57
2022/04/17 09:47:14;;;;;;;11.90;3.05;;;21.80;52.30;;;;;;5034716;28;20041;-59
2022/04/17 09:49:56;;;;;;;8.65;3.47;;;21.90;52.40;;;;;;5034704;28;20052;-57
2022/04/17 09:52:24;;;;;;;9.98;3.20;;;21.80;52.70;;;;;;5034155;28;20049;-58
2022/04/17 09:54:50;;;;;;;14.25;3.15;;;21.90;52.80;;;;;;5035023;28;20045;-58
2022/04/17 09:57:25;;;;;;;18.75;2.70;;;21.90;53.10;;;;;;5035402;28;20060;-65
2022/04/17 09:59:51;;;;;;;12.25;3.00;;;21.90;53.40;;;;;;5034971;28;20084;-58
2022/04/17 10:02:17;;;;;;;14.35;3.00;;;21.90;53.50;;;;;;5050276;28;20065;-58
2022/04/17 10:04:45;;;;;;;17.95;3.25;;;22.00;53.60;;;;;;5048957;28;20046;-57
2022/04/17 10:07:11;;;;;;;17.23;2.80;;;22.00;53.70;;;;;;5048188;28;20096;-57
2022/04/17 10:09:36;;;;;;;11.15;2.60;;;22.00;53.90;;;;;;5049988;28;20084;-57
2022/04/17 10:12:02;;;;;;;16.38;3.17;;;22.00;54.00;;;;;;5050497;28;20076;-57
2022/04/17 10:14:28;;;;;;;14.63;3.00;;;22.00;54.20;;;;;;5034566;28;20084;-56
2022/04/17 10:16:54;;;;;;;14.13;3.00;;;22.00;54.90;;;;;;5034112;28;20136;-56
2022/04/17 10:19:19;;;;;;;13.18;3.40;;;22.00;54.30;;;;;;5034960;28;20234;-56
2022/04/17 10:21:45;;;;;;;13.70;2.92;;;22.00;54.50;;;;;;5033274;28;20048;-57
2022/04/17 10:24:12;;;;;;;15.70;3.03;;;22.00;54.60;;;;;;5034777;28;20041;-57
2022/04/17 10:26:41;;;;;;;9.30;2.70;;;22.00;54.70;;;;;;5033787;28;20049;-57
2022/04/17 10:29:08;;;;;;;12.63;2.90;;;22.00;54.90;;;;;;5048282;28;20051;-56
2022/04/17 10:31:53;;;;;;;12.87;2.43;;;22.10;55.10;;;;;;5049707;28;20408;-58
2022/04/17 10:34:32;;;;;;;11.00;2.53;;;22.00;55.40;;;;;;5048938;28;20081;-60
2022/04/17 10:37:24;;;;;;;12.52;3.03;;;22.00;55.50;;;;;;5048125;28;20073;-57
2022/04/17 10:39:51;;;;;;;13.80;2.72;;;22.00;55.40;;;;;;5046292;28;20105;-59
2022/04/17 10:42:16;;;;;;;16.17;3.35;;;22.00;55.30;;;;;;5032524;28;20127;-58
2022/04/17 10:44:42;;;;;;;13.57;2.80;;;22.10;55.40;;;;;;5034750;28;20096;-56
2022/04/17 10:47:20;;;;;;;12.63;3.15;;;22.10;55.60;;;;;;5033526;28;20048;-58
2022/04/17 10:50:00;;;;;;;15.65;2.70;;;22.10;55.60;;;;;;5031042;28;20171;-58
2022/04/17 10:52:30;;;;;;;20.75;3.30;;;22.10;55.40;;;;;;5031910;28;20366;-59
2022/04/17 10:54:55;;;;;;;11.10;2.70;;;22.10;55.40;;;;;;5032788;28;20412;-59
2022/04/17 10:57:26;;;;;;;11.80;2.90;;;22.10;55.40;;;;;;5033598;28;20038;-58
2022/04/17 11:00:32;;;;;;;11.07;3.50;;;22.10;55.50;;;;;;5033741;28;20048;-58
2022/04/17 11:02:59;;;;;;;12.07;2.88;;;22.20;55.80;;;;;;5033564;28;20404;-58
2022/04/17 11:08:25;;;;;;;13.90;2.88;;;22.20;56.10;;;;;;5033334;28;20057;-58
2022/04/17 11:10:57;;;;;;;17.40;2.30;;;22.30;56.20;;;;;;5032982;28;20103;-57
2022/04/17 11:13:25;;;;;;;13.00;2.92;;;22.30;56.50;;;;;;5034788;28;20069;-58
2022/04/17 11:15:58;;;;;;;14.35;2.55;;;22.30;56.40;;;;;;5032739;28;20444;-58
2022/04/17 11:18:26;;;;;;;9.95;2.63;;;22.30;56.60;;;;;;5032121;28;20504;-58
2022/04/17 11:20:53;;;;;;;;;;;22.30;56.60;;;;;;5033886;28;20525;-59
2022/04/17 11:23:49;;;;;;;7.93;2.40;;;22.30;56.70;;;;;;5033441;28;20288;-59
2022/04/17 11:26:15;;;;;;;12.82;2.70;;;22.30;57.00;;;;;;5034175;28;20045;-58
2022/04/17 11:28:41;;;;;;;14.25;2.78;;;22.30;56.80;;;;;;5032434;28;20044;-58
2022/04/17 11:31:06;;;;;;;8.52;2.55;;;22.30;56.90;;;;;;5032587;28;20115;-58
2022/04/17 11:33:32;;;;;;;7.78;2.35;;;22.30;57.10;;;;;;5033657;28;20496;-58
2022/04/17 11:35:58;;;;;;;7.28;2.25;;;22.30;57.20;;;;;;5033824;28;20045;-58
2022/04/17 11:38:23;;;;;;;8.23;2.03;;;22.40;57.30;;;;;;5031538;28;20099;-56
2022/04/17 11:40:49;;;;;;;14.68;2.55;;;22.40;57.20;;;;;;5033051;28;20104;-59
2022/04/17 11:43:16;;;;;;;6.95;2.00;;;22.40;57.30;;;;;;5032890;28;20083;-58
2022/04/17 11:45:42;;;;;;;12.63;2.30;;;22.40;57.30;;;;;;5033142;28;20480;-60
2022/04/17 11:48:19;;;;;;;15.52;2.80;;;22.40;57.30;;;;;;5034193;28;20049;-58
2022/04/17 11:50:45;;;;;;;14.00;2.78;;;22.30;57.20;;;;;;5032672;28;20081;-59
2022/04/17 11:53:15;;;;;;;13.90;2.60;;;22.40;57.20;;;;;;5013492;28;20053;-58
2022/04/17 11:55:45;;;;;;;12.07;2.47;;;22.40;57.40;;;;;;5032687;28;20405;-59
2022/04/17 11:58:22;;;;;;;10.13;2.58;;;22.40;57.20;;;;;;5034155;28;20080;-59
2022/04/17 12:01:01;;;;;;;10.77;2.10;;;22.40;57.10;;;;;;5032643;28;20137;-59
2022/04/17 12:03:36;;;;;;;12.27;2.20;;;22.40;56.80;;;;;;5033534;28;20086;-59
2022/04/17 12:06:04;;;;;;;13.07;2.30;;;22.40;56.50;;;;;;5031504;28;20044;-58
2022/04/17 12:08:34;;;;;;;11.98;2.00;;;22.30;56.20;;;;;;5033222;28;20120;-59
2022/04/17 12:11:00;;;;;;;12.00;2.75;;;22.30;55.80;;;;;;5031284;28;20064;-58
2022/04/17 12:13:25;;;;;;;9.00;2.35;;;22.30;54.80;;;;;;5031938;28;20473;-59
2022/04/17 12:16:02;;;;;;;8.32;2.10;;;22.30;53.70;;;;;;5032542;28;20052;-58
2022/04/17 12:18:29;;;;;;;7.68;1.92;;;22.20;53.50;;;;;;5033145;28;20492;-58
2022/04/17 12:20:58;;;;;;;9.48;1.83;;;22.20;53.60;;;;;;5032198;28;20092;-58
2022/04/17 12:23:24;;;;;;;5.28;2.03;;;22.20;53.60;;;;;;5033611;28;20041;-59
2022/04/17 12:25:50;;;;;;;6.60;1.92;;;22.20;53.60;;;;;;5033102;28;20544;-58
2022/04/17 12:28:15;;;;;;;6.55;2.00;;;22.20;53.60;;;;;;5032217;28;20041;-58
2022/04/17 12:30:41;;;;;;;8.98;2.30;;;22.20;53.60;;;;;;5032624;28;20088;-58
2022/04/17 12:33:27;;;;;;;8.40;1.55;;;22.10;53.50;;;;;;5033241;28;20389;-58
2022/04/17 12:36:09;;;;;;;9.55;1.83;;;22.10;53.30;;;;;;5032458;28;20263;-58
2022/04/17 12:38:36;;;;;;;8.13;1.58;;;22.10;53.30;;;;;;5033350;28;20124;-58
2022/04/17 12:41:06;;;;;;;6.78;1.35;;;22.10;53.40;;;;;;5033004;28;20481;-59
2022/04/17 12:43:31;;;;;;;5.78;1.45;;;22.10;53.30;;;;;;5014706;28;20563;-59
2022/04/17 12:46:00;;;;;;;4.25;1.60;;;22.10;53.30;;;;;;5032011;28;20033;-59
2022/04/17 12:48:34;;;;;;;8.18;1.80;;;22.10;53.20;;;;;;5030885;28;20111;-61
2022/04/17 12:51:04;;;;;;;8.85;2.30;;;22.10;52.90;;;;;;5031762;28;20215;-60
2022/04/17 12:53:41;;;;;;;10.50;2.15;;;22.10;52.70;;;;;;5031786;28;20516;-59
2022/04/17 12:56:08;;;;;;;7.00;2.13;;;22.10;52.60;;;;;;5031325;28;20057;-58
2022/04/17 12:58:49;;;;;;;11.27;2.00;;;22.10;52.70;;;;;;5033156;28;20041;-59
2022/04/17 13:01:22;;;;;;;17.33;2.25;;;22.10;53.00;;;;;;5032652;28;20115;-58
2022/04/17 13:03:47;;;;;;;9.35;2.00;;;22.20;53.30;;;;;;5031544;28;20520;-59
2022/04/17 13:06:21;;;;;;;9.95;2.10;;;22.20;53.70;;;;;;5032964;28;20076;-59